Aeroporto :
LOGIN :

Iscrizione | Disclaimer

   EN    FR    IT 

 










Sommario :    VFR   VFR Marginale   IFR   IFR Intensivo   IFR Molto Intensivo
Visibilità : 
Base nubi : 
>= 8 km
>= 3000ft
5 / 8 km
1000 / 3000 ft
1500m / 5 km
500 / 1000 ft
800 / 1500m
200 / 500 ft
< 800m
< 200 ft
Simboli :   Temporali  Nebbia  Neve Forte  Precipitazioni Forti  Vento > 20 kt
SIGMETs :   Varie  Temporali  Ghiacco  Turbolenza  Onda orograficha  Ceneri Vulcaniche






- Altitudine del aeroporto : 183 ft
- Codice IATA : HAJ


EDDV - Hanover/Langenhagen Int.

ULTIMO METAR :
  • 070350Z 18005KT 140V210 CAVOK 11/07 Q1003 NOSIG

METARs OBSOLETI :
  • 070320Z 17005KT 140V210 CAVOK 11/07 Q1003
  • 070250Z 16004KT 120V210 CAVOK 11/07 Q1003
  • 070220Z 14003KT 090V190 CAVOK 11/07 Q1003
  • 070150Z 11003KT CAVOK 11/08 Q1003
  • 070120Z 12003KT 090V160 CAVOK 12/08 Q1003

TAF TAF EDDV
Valido dal 07 a 00 ore il 08 a 00 ore UTC


062300Z 0700/0724 17006KT CAVOK
BECMG 0706/0708 24012KT
TEMPO 0708/0717 25015G25KT
PROB30
TEMPO 0712/0716 25020G35KT SHRA SCT025 BKN035CB
BECMG 0717/0719 27007KT



MetMap, La meteo Aeronautica in un colpo d'occhio ! - Copyright ORBIFLY Dicembre 2007 - Disclaimer

ORBIFLY MET'MAP TEAM :

Programmazione e sviluppo : Alexandra Zaïnal
Concezione : Baudouin d'Aumeries
Aiuto per la programmazione : Marc-Olivier Méhu
Supporto tecnico e logistico : Manuel Goepfert
Aiuto per la traduzione : Arnaldo La Scala

Contatto : metmap@orbifly.com




FONTI E CREDITI :

   NOAA